Time;durP1;ratioP1;P1;durP2;ratioP2;P2;SDS_P1;SDS_P2;PMS_P1;PMS_P2;Temp;Humidity;BMP_temperature;BMP_pressure;BME280_temperature;BME280_humidity;BME280_pressure;Samples;Min_cycle;Max_cycle;Signal;HPM_P1;HPM_P2
2023/03/07 05:14:07;;;;;;;9.20;1.00;;;2.90;99.90;;;;;;6211257;22;20028;-81
2023/03/07 05:16:50;;;;;;;10.93;1.40;;;2.90;99.90;;;;;;6164702;23;20013;-82
2023/03/07 05:23:41;;;;;;;6.50;1.02;;;2.50;99.90;;;;;;6215295;23;20046;-83
2023/03/07 05:26:55;;;;;;;10.88;1.17;;;3.00;99.90;;;;;;6036481;23;20026;-83
2023/03/07 05:37:28;;;;;;;8.88;0.82;;;3.60;99.90;;;;;;6031761;23;20059;-86
2023/03/07 05:44:09;;;;;;;7.82;0.98;;;3.00;99.90;;;;;;5920392;24;20055;-80
2023/03/07 05:46:54;;;;;;;;;;;3.00;99.90;;;;;;6031277;23;20678;-82
2023/03/07 05:49:30;;;;;;;5.53;0.65;;;3.60;99.90;;;;;;6078221;23;19923;-85
2023/03/07 05:52:00;;;;;;;7.75;1.20;;;2.60;99.90;;;;;;6124391;23;20016;-79
2023/03/07 05:54:27;;;;;;;7.63;1.27;;;3.00;99.90;;;;;;6155988;23;20095;-80
2023/03/07 05:56:53;;;;;;;10.18;0.95;;;3.00;99.90;;;;;;6153463;23;20023;-79
2023/03/07 05:59:26;;;;;;;8.07;1.77;;;3.00;99.90;;;;;;6152576;23;20717;-82
2023/03/07 06:01:52;;;;;;;11.70;1.75;;;2.60;99.90;;;;;;6129464;23;20055;-77
2023/03/07 06:04:19;;;;;;;9.95;1.52;;;4.00;99.90;;;;;;6157993;23;20017;-84
2023/03/07 06:06:48;;;;;;;12.68;1.13;;;3.30;99.90;;;;;;6158348;23;20012;-80
2023/03/07 06:09:21;;;;;;;10.18;1.10;;;3.40;99.90;;;;;;6155801;23;20013;-82
2023/03/07 06:11:49;;;;;;;8.98;1.83;;;3.30;99.90;;;;;;6162536;23;20008;-80
2023/03/07 06:14:18;;;;;;;8.30;0.80;;;3.20;99.90;;;;;;6172148;23;20755;-81
2023/03/07 06:16:43;;;;;;;6.63;0.88;;;3.00;99.90;;;;;;6213569;23;20348;-80
2023/03/07 06:19:09;;;;;;;14.10;1.35;;;3.40;99.90;;;;;;6187191;23;20047;-80
2023/03/07 06:21:37;;;;;;;7.90;1.15;;;3.10;99.90;;;;;;6186452;23;20024;-80
2023/03/07 06:24:06;;;;;;;8.07;1.05;;;3.20;99.90;;;;;;6185438;23;20021;-78
2023/03/07 06:26:32;;;;;;;8.90;1.13;;;3.20;99.90;;;;;;6213603;23;20148;-78
2023/03/07 06:29:00;;;;;;;5.00;0.63;;;3.40;99.90;;;;;;6185762;23;20039;-80
2023/03/07 06:31:25;;;;;;;8.93;1.50;;;3.20;99.90;;;;;;6185655;23;20020;-77
2023/03/07 06:34:29;;;;;;;9.95;1.02;;;3.30;99.90;;;;;;6208077;23;20020;-83
2023/03/07 06:36:55;;;;;;;10.00;1.00;;;3.20;99.90;;;;;;6179129;23;20023;-79
2023/03/07 06:39:23;;;;;;;10.02;1.00;;;3.30;99.90;;;;;;6179802;23;20017;-81
2023/03/07 06:42:01;;;;;;;8.90;1.33;;;3.30;99.90;;;;;;6183403;23;20517;-84
2023/03/07 06:44:49;;;;;;;7.25;0.93;;;3.70;99.90;;;;;;6197413;23;20027;-80
2023/03/07 06:47:28;;;;;;;9.70;1.05;;;3.30;99.90;;;;;;6180213;23;20083;-82
2023/03/07 06:50:13;;;;;;;11.07;0.98;;;3.20;99.90;;;;;;6202670;23;20012;-82
2023/03/07 06:52:40;;;;;;;12.90;1.67;;;3.30;99.90;;;;;;6180875;23;20009;-83
2023/03/07 06:55:12;;;;;;;8.43;1.02;;;3.00;99.90;;;;;;6182831;23;20334;-82
2023/03/07 06:58:03;;;;;;;10.27;0.93;;;3.60;99.90;;;;;;6183370;23;20345;-83
2023/03/07 07:00:52;;;;;;;8.85;0.85;;;3.20;99.90;;;;;;6182441;23;20027;-83
2023/03/07 07:03:21;;;;;;;5.47;0.98;;;3.30;99.90;;;;;;6182594;23;20123;-83
2023/03/07 07:05:47;;;;;;;10.00;1.10;;;2.60;99.90;;;;;;6182000;23;20449;-83
2023/03/07 07:08:15;;;;;;;8.75;0.70;;;4.20;99.90;;;;;;6182754;23;20189;-83
2023/03/07 07:10:44;;;;;;;8.63;1.10;;;3.60;99.90;;;;;;6183271;23;20016;-82
2023/03/07 07:13:11;;;;;;;8.35;0.80;;;3.30;99.90;;;;;;6207601;23;20013;-83
2023/03/07 07:15:37;;;;;;;8.40;0.95;;;3.40;99.90;;;;;;6183534;23;20012;-83
2023/03/07 07:18:32;;;;;;;9.30;1.08;;;3.40;99.90;;;;;;6183373;23;20350;-84
2023/03/07 07:20:58;;;;;;;11.55;2.92;;;3.30;99.90;;;;;;6184270;23;20017;-82
2023/03/07 07:23:33;;;;;;;9.15;0.95;;;3.40;99.90;;;;;;6179622;23;20019;-82
2023/03/07 07:26:32;;;;;;;8.55;1.70;;;3.50;99.90;;;;;;6200877;23;20025;-82
2023/03/07 07:29:34;;;;;;;9.90;1.08;;;3.50;99.90;;;;;;6201203;23;20103;-82
2023/03/07 07:32:32;;;;;;;6.32;0.50;;;3.70;99.90;;;;;;6176987;23;20079;-82
2023/03/07 07:35:31;;;;;;;7.40;1.40;;;4.20;99.90;;;;;;6187638;23;20023;-83
2023/03/07 07:38:14;;;;;;;5.65;0.80;;;3.50;99.90;;;;;;6148924;23;20079;-85
2023/03/07 07:41:14;;;;;;;4.70;0.93;;;3.60;99.90;;;;;;6207660;23;20737;-83
2023/03/07 07:43:59;;;;;;;5.90;0.90;;;3.70;99.90;;;;;;6191569;23;20039;-84
2023/03/07 07:46:39;;;;;;;5.18;0.80;;;3.70;99.90;;;;;;6147535;23;20327;-82
2023/03/07 07:49:09;;;;;;;4.18;0.40;;;3.80;99.90;;;;;;6169380;23;20028;-82
2023/03/07 07:52:05;;;;;;;4.80;0.90;;;3.70;99.90;;;;;;6185095;23;20563;-84
2023/03/07 07:55:02;;;;;;;4.75;0.50;;;3.70;99.90;;;;;;6210393;23;20095;-82
2023/03/07 07:58:01;;;;;;;5.93;1.33;;;3.70;99.90;;;;;;6214120;23;20082;-82
2023/03/07 08:00:54;;;;;;;7.80;0.90;;;4.00;99.90;;;;;;6163047;23;20275;-83
2023/03/07 08:03:58;;;;;;;5.78;0.70;;;3.80;99.90;;;;;;6211868;23;20048;-83
2023/03/07 08:07:00;;;;;;;7.05;0.63;;;3.80;99.90;;;;;;6191618;23;20453;-83
2023/03/07 08:09:35;;;;;;;6.97;1.50;;;3.80;99.90;;;;;;6208302;23;20067;-82
2023/03/07 08:12:12;;;;;;;4.00;0.55;;;4.40;99.90;;;;;;6187922;23;20449;-83
2023/03/07 08:15:03;;;;;;;9.80;1.13;;;3.90;99.90;;;;;;6194423;23;20352;-83
2023/03/07 08:17:42;;;;;;;7.90;1.83;;;3.90;99.90;;;;;;6207038;23;20013;-82
2023/03/07 08:20:36;;;;;;;3.78;0.77;;;3.90;99.90;;;;;;6217280;23;20013;-83
2023/03/07 08:23:11;;;;;;;3.92;0.52;;;4.00;99.90;;;;;;6187493;23;20012;-82
2023/03/07 08:25:39;;;;;;;12.98;1.17;;;4.00;99.90;;;;;;6210439;23;20089;-82
2023/03/07 08:28:16;;;;;;;6.68;0.73;;;4.10;99.90;;;;;;6214390;23;20012;-82
2023/03/07 08:31:27;;;;;;;4.85;0.70;;;4.30;99.90;;;;;;6215982;23;20013;-82
2023/03/07 08:34:13;;;;;;;4.70;0.40;;;3.60;99.90;;;;;;6212084;23;20012;-82
2023/03/07 08:36:51;;;;;;;8.73;1.05;;;4.30;99.90;;;;;;6190012;23;20013;-82
2023/03/07 08:39:40;;;;;;;6.90;0.70;;;4.30;99.90;;;;;;6216790;23;20535;-82
2023/03/07 08:42:34;;;;;;;3.35;0.57;;;4.30;99.90;;;;;;6210265;23;20396;-83
2023/03/07 08:45:27;;;;;;;4.03;0.57;;;4.40;99.90;;;;;;6207888;23;20346;-81
2023/03/07 08:48:22;;;;;;;6.45;0.60;;;4.70;99.90;;;;;;6211656;23;20020;-81
2023/03/07 08:50:53;;;;;;;4.72;0.68;;;5.00;99.90;;;;;;6161819;23;20023;-82
2023/03/07 08:53:55;;;;;;;3.95;0.70;;;5.10;99.90;;;;;;6202900;23;20008;-81
2023/03/07 08:57:21;;;;;;;4.63;0.50;;;4.60;99.90;;;;;;6210218;23;20028;-82
2023/03/07 09:00:11;;;;;;;8.70;1.50;;;4.60;99.90;;;;;;6208992;23;20638;-81
2023/03/07 09:02:43;;;;;;;9.65;1.35;;;4.70;99.90;;;;;;6203098;23;20023;-82
2023/03/07 09:05:15;;;;;;;6.45;0.85;;;4.60;99.90;;;;;;6209979;23;20453;-82
2023/03/07 09:07:57;;;;;;;7.97;1.38;;;5.50;99.90;;;;;;6188328;23;20083;-82
2023/03/07 09:10:49;;;;;;;11.27;1.38;;;4.70;99.90;;;;;;6212377;23;20043;-81
2023/03/07 09:13:54;;;;;;;6.25;1.00;;;4.90;99.90;;;;;;6183917;23;20013;-82
2023/03/07 09:16:38;;;;;;;7.70;1.20;;;5.10;99.90;;;;;;6184323;23;20020;-82
2023/03/07 09:19:34;;;;;;;9.50;0.80;;;5.20;99.90;;;;;;6211114;23;20032;-81
2023/03/07 09:22:19;;;;;;;7.70;0.68;;;5.30;99.90;;;;;;6166898;23;20017;-82
2023/03/07 09:25:09;;;;;;;6.90;1.30;;;5.70;99.90;;;;;;6210192;23;20031;-81
2023/03/07 09:27:57;;;;;;;5.32;0.75;;;5.20;99.90;;;;;;6143140;23;20039;-81
2023/03/07 09:31:00;;;;;;;5.32;0.73;;;5.00;99.90;;;;;;6211795;23;20055;-82
2023/03/07 09:34:14;;;;;;;8.88;0.70;;;5.30;99.90;;;;;;6155779;23;20021;-81
2023/03/07 09:36:58;;;;;;;4.28;0.50;;;5.30;99.90;;;;;;6208647;23;20013;-82
2023/03/07 09:39:47;;;;;;;6.93;1.83;;;5.70;99.90;;;;;;6162056;23;20017;-82
2023/03/07 09:43:11;;;;;;;5.47;0.77;;;5.30;99.90;;;;;;6183173;23;20028;-81
2023/03/07 09:46:17;;;;;;;5.38;0.50;;;5.20;99.90;;;;;;6203686;23;20561;-81
2023/03/07 09:49:19;;;;;;;4.95;0.80;;;5.20;99.90;;;;;;6197143;23;20008;-81
2023/03/07 09:51:50;;;;;;;4.57;0.70;;;5.30;99.90;;;;;;6162149;23;20346;-81
2023/03/07 09:54:27;;;;;;;5.35;1.67;;;5.30;99.90;;;;;;6162210;23;20106;-81
2023/03/07 09:56:58;;;;;;;3.22;1.08;;;5.80;99.90;;;;;;6162503;23;20179;-81
2023/03/07 09:59:40;;;;;;;3.95;0.40;;;4.80;99.90;;;;;;6162741;23;20151;-82
2023/03/07 10:02:30;;;;;;;3.08;0.50;;;4.60;99.90;;;;;;6161598;23;20023;-82
2023/03/07 10:05:34;;;;;;;3.33;0.40;;;4.50;99.90;;;;;;6160194;23;20510;-82
2023/03/07 10:08:00;;;;;;;2.63;0.50;;;4.40;99.90;;;;;;6184659;23;20102;-82
2023/03/07 10:10:34;;;;;;;4.32;0.45;;;4.30;99.90;;;;;;6160135;23;20616;-82
2023/03/07 10:13:09;;;;;;;4.95;0.90;;;4.80;99.90;;;;;;6160282;23;20013;-82
2023/03/07 10:15:50;;;;;;;2.75;0.30;;;4.50;99.90;;;;;;6183846;23;20055;-82
2023/03/07 10:18:31;;;;;;;3.47;0.68;;;4.60;99.90;;;;;;6185407;23;20091;-83
2023/03/07 10:21:10;;;;;;;2.88;0.40;;;4.60;99.90;;;;;;6184048;23;20013;-83
2023/03/07 10:23:55;;;;;;;4.30;0.20;;;4.80;99.90;;;;;;6185212;23;20332;-82
2023/03/07 10:26:32;;;;;;;4.55;0.50;;;4.70;99.90;;;;;;6184285;23;20438;-83
2023/03/07 10:29:01;;;;;;;4.70;1.27;;;5.00;99.90;;;;;;6184956;23;20016;-82
2023/03/07 10:31:38;;;;;;;2.20;0.40;;;5.40;99.90;;;;;;6184776;23;20596;-82
2023/03/07 10:34:30;;;;;;;4.18;1.02;;;5.50;99.90;;;;;;6184514;23;20020;-81
2023/03/07 10:37:08;;;;;;;10.00;1.48;;;5.50;99.90;;;;;;6178264;23;20047;-81
2023/03/07 10:39:42;;;;;;;5.40;0.70;;;5.40;99.90;;;;;;6184128;23;20020;-82
2023/03/07 10:42:12;;;;;;;8.82;0.77;;;5.70;99.90;;;;;;6185005;23;20147;-82
2023/03/07 10:44:39;;;;;;;6.10;1.00;;;5.60;99.90;;;;;;6185445;23;20345;-81
2023/03/07 10:47:05;;;;;;;5.45;0.75;;;5.80;99.90;;;;;;6185599;23;20096;-82
2023/03/07 10:49:33;;;;;;;10.02;1.77;;;6.40;99.90;;;;;;6184813;23;20052;-82
2023/03/07 10:52:26;;;;;;;6.43;0.68;;;5.80;99.90;;;;;;6211204;23;20013;-82
2023/03/07 10:54:53;;;;;;;6.07;0.70;;;5.90;99.90;;;;;;6184426;23;20013;-82
2023/03/07 10:57:26;;;;;;;4.43;0.63;;;6.70;99.90;;;;;;6184374;23;20044;-82
2023/03/07 11:00:04;;;;;;;8.82;0.90;;;5.70;99.90;;;;;;6210318;23;20009;-81
2023/03/07 11:06:38;;;;;;;7.53;0.77;;;6.40;99.90;;;;;;6198908;23;20017;-78
2023/03/07 11:09:22;;;;;;;8.00;0.70;;;6.50;99.90;;;;;;6178113;23;20016;-81
2023/03/07 11:11:51;;;;;;;7.93;0.82;;;6.90;99.90;;;;;;6187952;23;20012;-82
2023/03/07 11:14:17;;;;;;;9.25;1.02;;;6.50;99.90;;;;;;6188463;23;20012;-81
2023/03/07 11:17:01;;;;;;;4.40;0.60;;;6.90;99.90;;;;;;6189001;23;20587;-82
2023/03/07 11:19:33;;;;;;;4.95;0.90;;;7.00;99.90;;;;;;6190144;23;20017;-81
2023/03/07 11:22:03;;;;;;;5.25;0.93;;;7.90;99.90;;;;;;6189126;23;20055;-80
2023/03/07 11:24:35;;;;;;;3.45;0.60;;;7.00;99.90;;;;;;6188544;23;20017;-81
2023/03/07 11:27:03;;;;;;;6.18;0.45;;;6.50;99.90;;;;;;6189045;23;20020;-80
2023/03/07 11:29:32;;;;;;;7.78;0.88;;;6.90;99.90;;;;;;6188792;23;20046;-81
2023/03/07 11:32:04;;;;;;;3.90;0.40;;;5.50;99.90;;;;;;6216204;23;20020;-83
2023/03/07 11:34:50;;;;;;;6.93;0.80;;;4.90;99.90;;;;;;6194711;23;20012;-81
2023/03/07 11:37:28;;;;;;;3.35;0.40;;;4.60;99.90;;;;;;6195470;23;20013;-82
2023/03/07 11:39:58;;;;;;;2.53;0.40;;;4.30;99.90;;;;;;6196275;23;20013;-81
2023/03/07 11:42:36;;;;;;;3.75;0.57;;;4.50;99.90;;;;;;6194315;23;20020;-81
2023/03/07 11:45:20;;;;;;;3.03;0.57;;;4.10;99.90;;;;;;6191837;23;20727;-82
2023/03/07 11:48:11;;;;;;;2.75;0.40;;;4.30;99.90;;;;;;6190852;23;20012;-85
2023/03/07 11:50:41;;;;;;;3.25;0.40;;;4.00;99.90;;;;;;6189728;23;20016;-81
2023/03/07 11:53:54;;;;;;;5.93;0.63;;;4.00;99.90;;;;;;6188582;23;20035;-81
2023/03/07 11:56:23;;;;;;;6.53;0.60;;;3.90;99.90;;;;;;6104731;23;20394;-82
2023/03/07 11:59:21;;;;;;;6.15;0.70;;;3.90;99.90;;;;;;6103922;23;20068;-82
2023/03/07 12:01:59;;;;;;;7.00;0.70;;;3.90;99.90;;;;;;6193924;23;20023;-83
2023/03/07 12:04:39;;;;;;;4.18;0.57;;;3.90;99.90;;;;;;6188140;23;20013;-83
2023/03/07 12:07:09;;;;;;;3.58;1.00;;;4.10;99.90;;;;;;6187579;23;20024;-79
2023/03/07 12:10:10;;;;;;;6.40;0.68;;;4.20;99.90;;;;;;6187926;23;20013;-79
2023/03/07 12:12:39;;;;;;;5.88;0.70;;;4.20;99.90;;;;;;6187652;23;20570;-80
2023/03/07 12:15:32;;;;;;;6.75;1.17;;;5.00;99.90;;;;;;6186715;23;20483;-82
2023/03/07 12:18:15;;;;;;;4.53;0.80;;;4.40;99.90;;;;;;6190068;23;20012;-82
2023/03/07 12:21:01;;;;;;;4.18;0.50;;;4.60;99.90;;;;;;6187854;23;20040;-84
2023/03/07 12:23:38;;;;;;;6.38;0.82;;;5.10;99.90;;;;;;6187227;23;20013;-80
2023/03/07 12:26:17;;;;;;;3.55;0.60;;;5.00;99.90;;;;;;6187180;23;20056;-79
2023/03/07 12:29:01;;;;;;;9.13;1.67;;;4.80;99.90;;;;;;6187786;23;20008;-79
2023/03/07 12:31:46;;;;;;;5.03;0.50;;;5.00;99.90;;;;;;6189083;23;20012;-79
2023/03/07 12:34:19;;;;;;;7.15;0.77;;;5.10;99.90;;;;;;6188144;23;20015;-80
2023/03/07 12:37:01;;;;;;;8.43;1.17;;;5.30;99.90;;;;;;6189579;23;20017;-78
2023/03/07 12:39:42;;;;;;;11.98;0.77;;;5.60;99.90;;;;;;6188265;23;20409;-78
2023/03/07 12:42:31;;;;;;;6.07;1.63;;;5.40;99.90;;;;;;6187755;23;20055;-78
2023/03/07 12:45:25;;;;;;;9.40;0.98;;;5.50;99.90;;;;;;6187671;23;20095;-79
2023/03/07 12:47:54;;;;;;;8.20;1.05;;;5.60;99.90;;;;;;6188961;23;20051;-79
2023/03/07 12:50:58;;;;;;;4.30;0.80;;;5.80;99.90;;;;;;6189348;23;20017;-80
2023/03/07 12:53:32;;;;;;;7.35;0.60;;;5.80;99.90;;;;;;6211254;23;20013;-79
2023/03/07 12:56:09;;;;;;;8.23;1.08;;;5.80;99.90;;;;;;6212134;23;20021;-78
2023/03/07 12:58:48;;;;;;;7.85;1.00;;;5.80;99.90;;;;;;6187387;23;20020;-79
2023/03/07 13:01:26;;;;;;;4.38;0.70;;;6.00;99.90;;;;;;6189169;23;20412;-79
2023/03/07 13:04:05;;;;;;;9.23;1.45;;;6.00;99.90;;;;;;6187707;23;20480;-79
2023/03/07 13:06:31;;;;;;;9.63;2.08;;;6.60;99.90;;;;;;6187818;23;20047;-79
2023/03/07 13:09:00;;;;;;;4.78;0.47;;;6.10;99.90;;;;;;6206065;23;20016;-79
2023/03/07 13:11:28;;;;;;;6.80;0.98;;;7.00;99.90;;;;;;6178441;23;20016;-79
2023/03/07 13:14:01;;;;;;;4.47;0.60;;;6.40;99.90;;;;;;6179705;23;20096;-79
2023/03/07 13:16:43;;;;;;;7.13;1.13;;;6.10;99.90;;;;;;6203887;23;20024;-78
2023/03/07 13:19:33;;;;;;;7.53;1.02;;;6.00;99.90;;;;;;6177830;23;20468;-79
2023/03/07 13:21:59;;;;;;;4.85;1.10;;;5.90;99.90;;;;;;6178791;23;20023;-79
2023/03/07 13:24:39;;;;;;;5.22;1.10;;;6.20;99.90;;;;;;6178651;23;20103;-79
2023/03/07 13:27:26;;;;;;;5.68;0.93;;;6.70;99.90;;;;;;6179668;23;20134;-79
2023/03/07 13:30:10;;;;;;;6.80;0.70;;;7.10;99.90;;;;;;6177542;23;20024;-78
2023/03/07 13:32:45;;;;;;;7.20;0.70;;;6.10;99.90;;;;;;6178292;23;20020;-79
2023/03/07 13:35:11;;;;;;;4.97;1.00;;;6.20;99.90;;;;;;6180890;23;20022;-79
2023/03/07 13:37:47;;;;;;;4.10;0.60;;;7.00;99.90;;;;;;6178225;23;21072;-79
2023/03/07 13:40:33;;;;;;;4.30;0.85;;;6.40;99.90;;;;;;6178955;23;20108;-79
2023/03/07 13:43:00;;;;;;;11.40;1.70;;;6.10;99.90;;;;;;6176784;23;20091;-81
2023/03/07 13:45:59;;;;;;;6.30;0.52;;;6.30;99.90;;;;;;6205448;23;20020;-80
2023/03/07 13:48:46;;;;;;;9.00;0.90;;;6.10;99.90;;;;;;6204410;23;20048;-80
2023/03/07 13:51:28;;;;;;;3.17;0.80;;;6.10;99.90;;;;;;6204209;23;20053;-80
2023/03/07 13:54:01;;;;;;;5.25;1.00;;;6.00;99.90;;;;;;6179747;23;20017;-79
2023/03/07 13:56:32;;;;;;;2.33;0.50;;;6.20;99.90;;;;;;6181484;23;20030;-81
2023/03/07 13:59:09;;;;;;;7.65;0.70;;;5.30;99.90;;;;;;6180355;23;20090;-80
2023/03/07 14:01:45;;;;;;;4.82;0.63;;;5.80;99.90;;;;;;6179205;23;20047;-80
2023/03/07 14:04:33;;;;;;;7.25;0.60;;;5.90;99.90;;;;;;6179378;23;20100;-80
2023/03/07 14:07:04;;;;;;;8.82;1.13;;;5.90;99.90;;;;;;6178184;23;20027;-79
2023/03/07 14:09:43;;;;;;;7.32;0.82;;;6.00;99.90;;;;;;6179771;23;20017;-80
2023/03/07 14:12:34;;;;;;;5.07;0.40;;;6.10;99.90;;;;;;6178635;23;20013;-79
2023/03/07 14:15:20;;;;;;;1.88;0.40;;;6.00;99.90;;;;;;6177977;23;20087;-79
2023/03/07 14:17:58;;;;;;;3.75;0.50;;;6.00;99.90;;;;;;6178776;23;20016;-80
2023/03/07 14:20:49;;;;;;;6.25;0.57;;;6.00;99.90;;;;;;6180027;23;20044;-80
2023/03/07 14:23:50;;;;;;;2.35;0.30;;;7.10;99.90;;;;;;6178062;23;20016;-80
2023/03/07 14:26:20;;;;;;;7.88;0.60;;;6.00;99.90;;;;;;6183249;23;20017;-80
2023/03/07 14:28:58;;;;;;;3.58;0.40;;;6.10;99.90;;;;;;6187828;23;20071;-80
2023/03/07 14:31:28;;;;;;;3.53;0.43;;;6.10;99.90;;;;;;6187842;23;20613;-80
2023/03/07 14:33:54;;;;;;;5.43;0.30;;;6.10;99.90;;;;;;6188211;23;20079;-80
2023/03/07 14:36:30;;;;;;;2.38;0.40;;;6.30;99.90;;;;;;6189018;23;20023;-80
2023/03/07 14:39:00;;;;;;;3.97;0.45;;;6.70;99.90;;;;;;6187097;23;20021;-80
2023/03/07 14:41:47;;;;;;;5.40;0.40;;;6.00;99.90;;;;;;6188984;23;20111;-80
2023/03/07 14:44:33;;;;;;;3.60;0.55;;;5.70;99.90;;;;;;6188234;23;20024;-80
2023/03/07 14:47:40;;;;;;;3.78;0.45;;;5.40;99.90;;;;;;6190029;23;20024;-80
2023/03/07 14:50:18;;;;;;;3.50;0.30;;;5.30;99.90;;;;;;6188013;23;20079;-79
2023/03/07 14:52:45;;;;;;;2.20;0.13;;;5.20;99.90;;;;;;6183973;23;20016;-79
2023/03/07 14:55:23;;;;;;;4.40;0.30;;;5.20;99.90;;;;;;6187059;23;20013;-79
2023/03/07 14:57:53;;;;;;;2.63;0.30;;;5.70;99.90;;;;;;6212759;23;20021;-79
2023/03/07 15:00:21;;;;;;;1.92;0.40;;;5.40;99.90;;;;;;6187258;23;20023;-80
2023/03/07 15:03:06;;;;;;;3.30;0.38;;;5.20;99.90;;;;;;6203811;23;20047;-79
2023/03/07 15:05:56;;;;;;;5.10;0.43;;;5.20;99.90;;;;;;6204372;23;20017;-80
2023/03/07 15:08:30;;;;;;;6.63;0.68;;;5.30;99.90;;;;;;6181786;23;20020;-79
2023/03/07 15:11:05;;;;;;;3.75;0.47;;;5.30;99.90;;;;;;6179247;23;20016;-80
2023/03/07 15:13:47;;;;;;;3.90;0.50;;;5.50;99.90;;;;;;6179759;23;20048;-79
2023/03/07 15:16:31;;;;;;;3.50;0.50;;;4.70;99.90;;;;;;6155359;23;20020;-80
2023/03/07 15:19:23;;;;;;;2.53;0.50;;;6.30;99.90;;;;;;6156978;23;20028;-80
2023/03/07 15:21:57;;;;;;;2.90;0.40;;;5.30;99.90;;;;;;6155620;23;20023;-80
2023/03/07 15:24:27;;;;;;;7.75;0.82;;;5.50;99.90;;;;;;6156090;23;20032;-80
2023/03/07 15:26:54;;;;;;;4.40;0.43;;;5.50;99.90;;;;;;6154675;23;20017;-80
2023/03/07 15:29:25;;;;;;;4.03;0.43;;;6.20;99.90;;;;;;6154705;23;20368;-80
2023/03/07 15:31:58;;;;;;;3.85;0.55;;;5.70;99.90;;;;;;6156093;23;20032;-79
2023/03/07 15:34:32;;;;;;;4.63;0.60;;;5.40;99.90;;;;;;6153837;23;20016;-79
2023/03/07 15:37:26;;;;;;;1.25;0.25;;;6.30;99.90;;;;;;6157271;23;20027;-80
2023/03/07 15:40:01;;;;;;;2.38;0.20;;;5.40;99.90;;;;;;6154859;23;20035;-80
2023/03/07 15:42:29;;;;;;;3.67;0.13;;;5.30;99.90;;;;;;6153162;23;20044;-79
2023/03/07 15:45:00;;;;;;;5.90;0.50;;;5.30;99.90;;;;;;6154073;23;20032;-80
2023/03/07 15:47:28;;;;;;;1.08;0.10;;;5.10;99.90;;;;;;6153412;23;20453;-80
2023/03/07 15:50:24;;;;;;;4.18;0.52;;;5.30;99.90;;;;;;6153904;23;20013;-80
2023/03/07 15:52:58;;;;;;;2.10;0.20;;;5.00;99.90;;;;;;6153707;23;20595;-80
2023/03/07 15:55:39;;;;;;;3.58;0.40;;;5.20;99.90;;;;;;6153877;23;20204;-80
2023/03/07 15:58:12;;;;;;;4.78;1.10;;;4.80;99.90;;;;;;6155221;23;20785;-80
2023/03/07 16:01:19;;;;;;;2.20;0.88;;;5.00;99.90;;;;;;6156408;23;20465;-80
2023/03/07 16:04:16;;;;;;;;;;;4.20;99.90;;;;;;6155105;23;20021;-80
2023/03/07 16:06:55;;;;;;;1.80;0.20;;;4.80;99.90;;;;;;6179894;23;19927;-80
2023/03/07 16:09:33;;;;;;;3.70;0.77;;;4.90;99.90;;;;;;6156386;23;20095;-80
2023/03/07 16:12:44;;;;;;;1.75;0.20;;;5.00;99.90;;;;;;6153858;23;20615;-80
2023/03/07 16:15:19;;;;;;;2.67;0.22;;;4.50;99.90;;;;;;6192025;23;20070;-80
2023/03/07 16:17:55;;;;;;;2.00;0.17;;;4.50;99.90;;;;;;6181955;23;20410;-80
2023/03/07 16:23:35;;;;;;;2.70;0.20;;;5.60;99.90;;;;;;6210482;23;20889;-80
2023/03/07 16:26:15;;;;;;;3.10;0.40;;;4.70;99.90;;;;;;6189028;23;20031;-80
2023/03/07 16:28:54;;;;;;;2.67;0.25;;;4.90;99.90;;;;;;6188874;23;20027;-80
2023/03/07 16:32:03;;;;;;;5.03;0.32;;;4.80;99.90;;;;;;6187019;23;20589;-80
2023/03/07 16:34:34;;;;;;;5.38;0.40;;;3.80;99.90;;;;;;6211846;23;20013;-80
2023/03/07 16:37:19;;;;;;;2.50;0.20;;;4.20;99.90;;;;;;6189061;23;20012;-81
2023/03/07 16:39:48;;;;;;;1.73;0.20;;;4.90;99.90;;;;;;6189378;23;20023;-80
2023/03/07 16:42:37;;;;;;;4.15;0.40;;;4.60;99.90;;;;;;6181349;23;20021;-80
2023/03/07 16:45:35;;;;;;;0.93;0.20;;;3.90;99.90;;;;;;6179462;23;20024;-80
2023/03/07 16:48:11;;;;;;;2.17;0.30;;;3.90;99.90;;;;;;6182073;23;20013;-80
2023/03/07 16:54:02;;;;;;;;;;;;;;;;;;;;;
2023/03/07 16:56:49;;;;;;;;;;;;;;;;;;;;;
2023/03/07 16:59:51;;;;;;;1.58;0.25;;;3.50;99.90;;;;;;6204792;23;20012;-81
2023/03/07 17:02:36;;;;;;;2.08;0.30;;;3.30;99.90;;;;;;6179408;23;20016;-79
2023/03/07 17:05:02;;;;;;;3.75;0.82;;;4.30;99.90;;;;;;6182581;23;20028;-80
2023/03/07 17:07:28;;;;;;;2.25;0.52;;;3.40;99.90;;;;;;6205861;23;20020;-80
2023/03/07 17:09:57;;;;;;;2.20;0.40;;;3.50;99.90;;;;;;6177795;23;20024;-80
2023/03/07 17:12:26;;;;;;;4.10;0.43;;;3.70;99.90;;;;;;6177997;23;20024;-80
2023/03/07 17:14:56;;;;;;;3.08;0.40;;;3.10;99.90;;;;;;6178083;23;20020;-80
2023/03/07 17:17:39;;;;;;;5.38;0.43;;;3.60;99.90;;;;;;6178655;23;20036;-81
2023/03/07 17:21:07;;;;;;;;;;;;;;;;;;;;;
2023/03/07 17:24:15;;;;;;;1.33;0.20;;;2.90;99.90;;;;;;6167961;23;20048;-81
2023/03/07 17:26:45;;;;;;;4.90;0.53;;;2.80;99.90;;;;;;6091446;23;20027;-81
2023/03/07 17:29:39;;;;;;;5.88;0.55;;;2.90;99.90;;;;;;6123742;23;20248;-81
2023/03/07 17:36:20;;;;;;;4.68;0.32;;;3.50;99.90;;;;;;6088191;23;20022;-82
2023/03/07 17:39:22;;;;;;;5.20;0.57;;;2.70;99.90;;;;;;6086777;23;20028;-80
2023/03/07 17:42:34;;;;;;;1.85;0.30;;;1.90;99.90;;;;;;6066527;23;20683;-82
2023/03/07 17:55:37;;;;;;;5.13;0.63;;;2.40;99.90;;;;;;6186501;23;20505;-81
2023/03/07 17:58:42;;;;;;;4.50;0.38;;;2.40;99.90;;;;;;6160093;23;20705;-82
2023/03/07 18:05:33;;;;;;;2.13;0.20;;;2.20;99.90;;;;;;5875697;24;20029;-82
2023/03/07 18:29:04;;;;;;;1.42;0.13;;;1.90;99.90;;;;;;6094642;23;20053;-81
2023/03/07 18:36:30;;;;;;;2.63;0.20;;;2.40;99.90;;;;;;6112653;23;20229;-82
2023/03/07 18:43:16;;;;;;;2.45;0.10;;;1.80;99.90;;;;;;5971034;23;20063;-78
2023/03/07 18:58:30;;;;;;;6.95;1.65;;;1.60;99.90;;;;;;6178323;23;20036;-81
2023/03/07 19:01:31;;;;;;;3.03;0.65;;;2.10;99.90;;;;;;6150595;23;20806;-80
2023/03/07 19:04:00;;;;;;;;;;;1.60;99.90;;;;;;6075052;23;20036;-79
2023/03/07 19:06:39;;;;;;;2.30;0.30;;;2.50;99.90;;;;;;6120700;23;19960;-80
2023/03/07 19:09:25;;;;;;;4.82;0.30;;;2.10;99.90;;;;;;6101917;23;20025;-80
2023/03/07 19:12:40;;;;;;;2.40;0.32;;;1.50;99.90;;;;;;6108773;23;20020;-80
2023/03/07 19:15:15;;;;;;;1.80;0.20;;;1.50;99.90;;;;;;6122963;23;20056;-80
2023/03/07 19:17:53;;;;;;;2.30;0.38;;;1.50;99.90;;;;;;6100231;23;20392;-80
2023/03/07 19:20:33;;;;;;;2.30;0.20;;;1.60;99.90;;;;;;6080145;23;20013;-81
2023/03/07 20:04:59;;;;;;;0.30;0.10;;;1.10;99.90;;;;;;6202271;23;20028;-83
2023/03/07 20:08:02;;;;;;;1.45;0.20;;;1.00;99.90;;;;;;6153222;23;20012;-83
2023/03/07 20:15:41;;;;;;;1.52;0.20;;;1.00;99.90;;;;;;6124944;23;20473;-83
2023/03/07 20:18:43;;;;;;;3.22;0.20;;;0.60;99.90;;;;;;6062783;23;20103;-83
2023/03/07 20:21:32;;;;;;;2.38;0.20;;;1.00;99.90;;;;;;6157984;23;20017;-83
2023/03/07 20:32:59;;;;;;;0.75;0.10;;;1.10;99.90;;;;;;6065670;23;20043;-83
2023/03/07 20:50:56;;;;;;;;;;;;;;;;;;;;;
2023/03/07 21:00:14;;;;;;;0.52;0.20;;;0.30;99.90;;;;;;6004414;23;20849;-84
2023/03/07 21:02:40;;;;;;;3.35;0.20;;;0.80;99.90;;;;;;6032691;23;20014;-79
2023/03/07 21:21:31;;;;;;;0.68;0.20;;;-0.20;99.90;;;;;;6036159;23;20022;-82
2023/03/07 21:25:18;;;;;;;0.65;0.25;;;0.60;99.90;;;;;;6039211;23;20023;-83
2023/03/07 21:29:17;;;;;;;;;;;;;;;;;;;;;
2023/03/07 21:33:01;;;;;;;2.05;0.40;;;0.60;99.90;;;;;;6002249;23;20030;-83
2023/03/07 21:36:10;;;;;;;0.50;0.20;;;0.50;99.90;;;;;;6004550;23;20113;-82
2023/03/07 21:39:33;;;;;;;2.28;0.40;;;0.20;99.90;;;;;;6022715;23;20023;-82
2023/03/07 21:43:31;;;;;;;1.73;0.40;;;0.50;99.90;;;;;;6038324;23;20015;-83
2023/03/07 21:47:12;;;;;;;1.50;0.32;;;0.50;99.90;;;;;;6013028;23;20023;-82
2023/03/07 21:50:31;;;;;;;1.08;0.20;;;0.80;99.90;;;;;;6076963;23;20538;-82
2023/03/07 21:54:18;;;;;;;2.40;0.60;;;0.80;99.90;;;;;;6111132;23;20021;-83
2023/03/07 21:58:04;;;;;;;1.40;0.40;;;0.80;99.90;;;;;;6117601;23;20025;-82
2023/03/07 22:01:47;;;;;;;0.90;0.30;;;0.40;99.90;;;;;;6086160;23;20054;-82
2023/03/07 22:05:08;;;;;;;0.70;0.30;;;0.50;99.90;;;;;;6073602;23;20029;-82
2023/03/07 22:12:54;;;;;;;1.80;0.38;;;0.20;99.90;;;;;;6069216;23;20023;-82
2023/03/07 22:16:35;;;;;;;2.00;0.40;;;0.90;99.90;;;;;;6020117;23;20119;-82
2023/03/07 22:20:22;;;;;;;2.78;0.40;;;0.40;99.90;;;;;;6069277;23;20093;-84
2023/03/07 22:23:30;;;;;;;1.73;0.50;;;0.40;99.90;;;;;;6161724;23;20035;-82
2023/03/07 22:26:54;;;;;;;4.10;0.40;;;1.20;99.90;;;;;;6167926;23;20567;-81
2023/03/07 22:30:31;;;;;;;2.35;0.55;;;0.80;99.90;;;;;;6146541;23;20071;-84
2023/03/07 22:37:24;;;;;;;1.38;0.40;;;0.50;99.90;;;;;;6097947;23;20523;-82
2023/03/07 22:40:56;;;;;;;2.10;0.57;;;0.40;99.90;;;;;;6077691;23;20462;-81
2023/03/07 22:44:27;;;;;;;2.78;0.45;;;0.70;99.90;;;;;;6125558;23;20026;-82
2023/03/07 22:52:06;;;;;;;3.55;0.47;;;1.30;99.90;;;;;;6118800;23;20025;-82
2023/03/07 22:55:18;;;;;;;2.33;0.70;;;0.60;99.90;;;;;;6072313;23;20010;-82
2023/03/07 22:58:19;;;;;;;1.23;0.35;;;1.10;99.90;;;;;;6113342;23;20018;-81
2023/03/07 23:01:19;;;;;;;2.45;0.57;;;1.20;99.90;;;;;;6103656;23;20060;-82
2023/03/07 23:04:09;;;;;;;1.40;0.77;;;0.30;99.90;;;;;;6079034;23;20506;-81